Saint Albert, Canada
Current Conditions -  °F | °C
As of 1:00 PM on Saturday 25 Oct 2014 (Local Time) from CYXD Reporting Station
Clear Clear  
Wind Chill: 41°   Ceiling: Unl
Heat Index: 46°   Visibility: 9mi
Dew Point: 25°   Wind: 13mph
Humidity: 43%   Direction: 120°ESE
Pressure: 29.87"   Gusts: NA
Location:  53.63°N, 113.63°W
Report Text: CYXD 251900Z AUTO 12011KT 9SM CLR 08/M04 A2987 RMK SLP135
Loading
Personal Weather Stations






























Interactive Weather Map
Tropical Storm Tracking
New forecast layout! Learn more

10-Day Weather Forecast

Advertisements
Track Severe Weather on mobile